createdAt,value
2023-12-31T00:05:29.912Z,52.70
2023-12-31T00:15:35.671Z,49.10
2023-12-31T00:25:42.909Z,43.60
2023-12-31T00:35:49.744Z,26.40
2023-12-31T00:45:56.607Z,28.80
2023-12-31T00:56:03.576Z,24.00
2023-12-31T01:06:07.275Z,38.50
2023-12-31T01:16:13.219Z,38.80
2023-12-31T01:26:20.174Z,36.30
2023-12-31T01:36:28.139Z,31.40
2023-12-31T01:46:37.153Z,26.70
2023-12-31T02:06:52.210Z,26.00
2023-12-31T02:16:57.932Z,33.10
2023-12-31T02:27:05.472Z,34.10
2023-12-31T02:37:12.596Z,38.60
2023-12-31T02:47:20.444Z,35.20
2023-12-31T02:57:29.739Z,35.80
2023-12-31T03:07:37.303Z,44.80
2023-12-31T03:17:44.373Z,52.50
2023-12-31T03:27:51.892Z,49.50
2023-12-31T03:37:58.909Z,39.30
2023-12-31T03:48:06.909Z,47.10
2023-12-31T03:58:14.002Z,55.00
2023-12-31T04:08:20.958Z,33.60
2023-12-31T04:18:28.018Z,39.70
2023-12-31T04:28:35.182Z,40.90
2023-12-31T04:38:42.050Z,36.80
2023-12-31T04:48:50.301Z,35.10
2023-12-31T04:58:59.959Z,41.30
2023-12-31T05:19:16.195Z,55.40
2023-12-31T05:29:23.288Z,47.20
2023-12-31T05:39:30.097Z,49.40
2023-12-31T05:49:35.534Z,47.10
2023-12-31T05:59:42.697Z,52.40
2023-12-31T06:09:49.520Z,50.00
2023-12-31T06:19:56.695Z,43.10
2023-12-31T06:30:04.302Z,52.40
2023-12-31T06:40:13.100Z,56.90
2023-12-31T06:50:20.447Z,58.00
2023-12-31T07:00:27.739Z,66.60
2023-12-31T07:10:34.924Z,65.30
2023-12-31T07:20:42.757Z,63.70
2023-12-31T07:30:49.994Z,82.80
2023-12-31T07:40:55.687Z,66.00
2023-12-31T07:51:02.721Z,58.10
2023-12-31T08:01:10.368Z,50.40
2023-12-31T08:11:17.852Z,48.00
2023-12-31T08:21:24.725Z,46.60
2023-12-31T08:31:32.359Z,65.20
2023-12-31T08:41:39.441Z,63.50
2023-12-31T08:51:46.388Z,51.10
2023-12-31T09:01:53.258Z,54.50
2023-12-31T09:12:00.376Z,65.40
2023-12-31T09:22:07.978Z,72.50
2023-12-31T09:32:15.015Z,66.10
2023-12-31T09:42:21.750Z,56.40
2023-12-31T09:52:31.967Z,57.80
2023-12-31T10:02:37.728Z,71.90
2023-12-31T10:12:43.640Z,57.50
2023-12-31T10:22:48.109Z,52.90
2023-12-31T10:32:55.796Z,50.80
2023-12-31T10:43:07.065Z,47.80
2023-12-31T10:53:12.406Z,53.70
2023-12-31T11:03:20.133Z,46.70
2023-12-31T11:13:29.415Z,42.60
2023-12-31T11:23:36.591Z,41.70
2023-12-31T11:33:42.191Z,46.10
2023-12-31T11:43:50.042Z,35.90
2023-12-31T11:54:00.336Z,42.50
2023-12-31T12:04:07.726Z,40.80
2023-12-31T12:14:14.192Z,42.90
2023-12-31T12:24:20.558Z,38.30
2023-12-31T12:34:28.504Z,41.30
2023-12-31T12:44:35.898Z,41.70
2023-12-31T12:54:43.369Z,43.10
2023-12-31T13:04:50.779Z,48.50
2023-12-31T13:14:56.258Z,32.20
2023-12-31T13:25:02.094Z,35.00
2023-12-31T13:35:08.524Z,42.30
2023-12-31T13:45:15.890Z,39.10
2023-12-31T13:55:22.835Z,26.70
2023-12-31T14:05:27.574Z,36.70
2023-12-31T14:15:35.426Z,34.30
2023-12-31T14:25:40.814Z,36.90
2023-12-31T14:35:47.132Z,36.80
2023-12-31T14:45:54.511Z,32.30
2023-12-31T14:56:01.896Z,30.60
2023-12-31T15:06:08.150Z,57.80
2023-12-31T15:16:14.042Z,65.80
2023-12-31T15:26:20.908Z,67.20
2023-12-31T15:36:26.919Z,79.80
2023-12-31T15:46:34.093Z,58.60
2023-12-31T15:56:41.776Z,49.80
2023-12-31T16:06:48.667Z,42.30
2023-12-31T16:16:55.796Z,44.70
2023-12-31T16:27:01.495Z,54.90
2023-12-31T16:37:07.673Z,75.10
2023-12-31T16:47:12.427Z,45.40
2023-12-31T16:57:17.566Z,48.90
2023-12-31T17:17:29.006Z,122.30
2023-12-31T17:27:36.605Z,110.30
2023-12-31T17:37:43.924Z,67.50
2023-12-31T17:47:51.201Z,69.40
2023-12-31T17:57:57.006Z,116.40
2023-12-31T18:08:05.602Z,118.40
2023-12-31T18:18:12.911Z,136.50
2023-12-31T18:28:18.035Z,123.80
2023-12-31T18:38:26.216Z,87.70
2023-12-31T18:48:33.277Z,97.50
2023-12-31T18:58:40.824Z,95.60
2023-12-31T19:08:47.282Z,150.60
2023-12-31T19:18:53.802Z,140.40
2023-12-31T19:29:01.255Z,143.80
2023-12-31T19:39:09.275Z,96.60
2023-12-31T19:49:16.067Z,101.40
2023-12-31T19:59:22.964Z,89.40
2023-12-31T20:09:30.152Z,100.10
2023-12-31T20:19:35.796Z,122.60
2023-12-31T20:29:41.217Z,114.70
2023-12-31T20:39:47.965Z,64.00
2023-12-31T20:49:54.927Z,75.70
2023-12-31T21:00:01.307Z,64.50
2023-12-31T21:10:10.017Z,48.40
2023-12-31T21:20:16.475Z,74.70
2023-12-31T21:30:23.495Z,64.30
2023-12-31T21:40:29.620Z,62.80
2023-12-31T21:50:36.194Z,63.70
2023-12-31T22:00:43.108Z,81.70
2023-12-31T22:10:48.779Z,65.80
2023-12-31T22:20:55.741Z,58.00
2023-12-31T22:31:02.707Z,103.20
2023-12-31T22:41:09.692Z,86.30
2023-12-31T22:51:17.841Z,76.50
2023-12-31T23:01:28.981Z,62.30
2023-12-31T23:11:35.880Z,140.90
2023-12-31T23:21:43.072Z,112.80
2023-12-31T23:31:49.952Z,113.50
2023-12-31T23:41:57.009Z,104.70
2023-12-31T23:52:04.106Z,118.10
